createdAt,value
2019-03-03T00:00:58.138Z,8.40
2019-03-03T00:02:02.797Z,8.40
2019-03-03T00:03:06.966Z,8.40
2019-03-03T00:04:11.149Z,8.40
2019-03-03T00:05:15.298Z,8.40
2019-03-03T00:06:19.520Z,8.40
2019-03-03T00:07:23.655Z,8.40
2019-03-03T00:08:27.769Z,8.50
2019-03-03T00:09:32.020Z,8.50
2019-03-03T00:10:36.395Z,8.50
2019-03-03T00:11:40.677Z,8.50
2019-03-03T00:12:44.839Z,8.50
2019-03-03T00:13:48.977Z,8.50
2019-03-03T00:14:53.268Z,8.50
2019-03-03T00:15:57.388Z,8.50
2019-03-03T00:17:01.730Z,8.50
2019-03-03T00:18:05.876Z,8.50
2019-03-03T00:19:10.098Z,8.50
2019-03-03T00:20:14.601Z,8.50
2019-03-03T00:21:18.776Z,8.50
2019-03-03T00:22:23.017Z,8.50
2019-03-03T00:23:27.346Z,8.50
2019-03-03T00:24:31.538Z,8.60
2019-03-03T00:25:35.818Z,8.60
2019-03-03T00:26:40.075Z,8.60
2019-03-03T00:27:44.236Z,8.60
2019-03-03T00:28:48.567Z,8.60
2019-03-03T00:29:52.853Z,8.60
2019-03-03T00:30:57.073Z,8.60
2019-03-03T00:32:01.267Z,8.50
2019-03-03T00:33:05.651Z,8.50
2019-03-03T00:34:09.871Z,8.50
2019-03-03T00:35:14.449Z,8.60
2019-03-03T00:36:19.019Z,8.60
2019-03-03T00:37:40.873Z,8.60
2019-03-03T00:39:07.122Z,8.60
2019-03-03T00:40:30.489Z,8.60
2019-03-03T00:41:59.703Z,8.70
2019-03-03T00:43:13.909Z,8.70
2019-03-03T00:44:40.015Z,8.70
2019-03-03T00:46:03.233Z,8.60
2019-03-03T00:47:19.602Z,8.60
2019-03-03T00:48:58.253Z,8.60
2019-03-03T00:50:27.691Z,8.70
2019-03-03T00:51:40.099Z,8.60
2019-03-03T00:53:04.882Z,8.60
2019-03-03T00:54:30.843Z,8.60
2019-03-03T00:55:54.111Z,8.60
2019-03-03T00:57:20.396Z,8.60
2019-03-03T00:58:43.716Z,8.60
2019-03-03T00:59:53.353Z,8.60
2019-03-03T01:01:11.922Z,8.60
2019-03-03T01:02:36.935Z,8.60
2019-03-03T01:03:50.517Z,8.60
2019-03-03T01:04:59.629Z,8.60
2019-03-03T01:06:21.761Z,8.60
2019-03-03T01:07:35.909Z,8.60
2019-03-03T01:09:02.219Z,8.60
2019-03-03T01:10:15.240Z,8.60
2019-03-03T01:11:47.492Z,8.60
2019-03-03T01:12:56.034Z,8.60
2019-03-03T01:14:12.809Z,8.60
2019-03-03T01:15:26.018Z,8.60
2019-03-03T01:16:42.411Z,8.60
2019-03-03T01:18:08.507Z,8.60
2019-03-03T01:19:37.979Z,8.70
2019-03-03T01:20:50.125Z,8.60
2019-03-03T01:22:16.065Z,8.70
2019-03-03T01:23:45.554Z,8.70
2019-03-03T01:24:58.773Z,8.70
2019-03-03T01:26:03.078Z,8.70
2019-03-03T01:27:07.365Z,8.70
2019-03-03T01:28:11.650Z,8.70
2019-03-03T01:29:16.210Z,8.70
2019-03-03T01:30:20.505Z,8.70
2019-03-03T01:31:24.693Z,8.70
2019-03-03T01:32:28.990Z,8.70
2019-03-03T01:33:33.193Z,8.70
2019-03-03T01:34:37.345Z,8.70
2019-03-03T01:35:41.619Z,8.70
2019-03-03T01:36:45.797Z,8.70
2019-03-03T01:37:50.097Z,8.70
2019-03-03T01:38:54.222Z,8.70
2019-03-03T01:39:58.732Z,8.70
2019-03-03T01:41:03.029Z,8.70
2019-03-03T01:42:07.362Z,8.70
2019-03-03T01:43:11.649Z,8.70
2019-03-03T01:44:15.938Z,8.70
2019-03-03T01:45:20.233Z,8.70
2019-03-03T01:46:24.423Z,8.70
2019-03-03T01:47:28.699Z,8.70
2019-03-03T01:48:32.975Z,8.70
2019-03-03T01:49:37.137Z,8.70
2019-03-03T01:50:41.316Z,8.70
2019-03-03T01:51:45.612Z,8.80
2019-03-03T01:52:49.792Z,8.70
2019-03-03T01:53:54.094Z,8.70
2019-03-03T01:54:58.488Z,8.70
2019-03-03T01:56:02.818Z,8.70
2019-03-03T01:57:07.134Z,8.70
2019-03-03T01:58:11.465Z,8.70
2019-03-03T01:59:15.645Z,8.70
2019-03-03T02:00:25.240Z,8.70
2019-03-03T02:01:29.757Z,8.70
2019-03-03T02:02:33.951Z,8.70
2019-03-03T02:03:39.022Z,8.80
2019-03-03T02:04:43.347Z,8.80
2019-03-03T02:05:47.781Z,8.80
2019-03-03T02:06:52.045Z,8.80
2019-03-03T02:07:56.390Z,8.80
2019-03-03T02:09:00.660Z,8.80
2019-03-03T02:10:05.245Z,8.80
2019-03-03T02:11:09.516Z,8.70
2019-03-03T02:12:13.730Z,8.70
2019-03-03T02:13:18.376Z,8.70
2019-03-03T02:14:22.643Z,8.70
2019-03-03T02:15:26.975Z,8.70
2019-03-03T02:16:31.235Z,8.70
2019-03-03T02:17:35.484Z,8.70
2019-03-03T02:18:39.808Z,8.70
2019-03-03T02:19:44.053Z,8.70
2019-03-03T02:20:48.393Z,8.70
2019-03-03T02:21:52.859Z,8.70
2019-03-03T02:22:57.051Z,8.70
2019-03-03T02:24:01.361Z,8.80
2019-03-03T02:25:06.349Z,8.70
2019-03-03T02:26:10.823Z,8.70
2019-03-03T02:27:15.016Z,8.80
2019-03-03T02:28:19.333Z,8.70
2019-03-03T02:29:23.611Z,8.70
2019-03-03T02:30:27.837Z,8.80
2019-03-03T02:31:32.146Z,8.80
2019-03-03T02:32:36.424Z,8.70
2019-03-03T02:33:41.043Z,8.70
2019-03-03T02:34:45.329Z,8.70
2019-03-03T02:35:49.707Z,8.70
2019-03-03T02:36:54.102Z,8.80
2019-03-03T02:37:58.244Z,8.80
2019-03-03T02:39:02.572Z,8.80
2019-03-03T02:40:07.958Z,8.80
2019-03-03T02:41:13.014Z,8.80
2019-03-03T02:42:17.320Z,8.80
2019-03-03T02:43:21.511Z,8.70
2019-03-03T02:44:25.715Z,8.70
2019-03-03T02:45:29.969Z,8.80
2019-03-03T02:46:34.298Z,8.70
2019-03-03T02:47:38.645Z,8.70
2019-03-03T02:48:42.852Z,8.80
2019-03-03T02:49:47.157Z,8.70
2019-03-03T02:50:51.476Z,8.70
2019-03-03T02:51:56.175Z,8.70
2019-03-03T02:53:00.518Z,8.70
2019-03-03T02:54:05.050Z,8.70
2019-03-03T02:55:10.845Z,8.70
2019-03-03T02:56:15.144Z,8.70
2019-03-03T02:57:19.300Z,8.70
2019-03-03T02:58:23.506Z,8.70
2019-03-03T02:59:27.695Z,8.70
2019-03-03T03:00:31.889Z,8.70
2019-03-03T03:01:39.717Z,8.70
2019-03-03T03:02:51.231Z,8.80
2019-03-03T03:03:55.653Z,8.80
2019-03-03T03:04:59.935Z,8.80
2019-03-03T03:06:12.589Z,8.80
2019-03-03T03:07:41.812Z,8.80
2019-03-03T03:09:03.895Z,8.70
2019-03-03T03:10:21.252Z,8.80
2019-03-03T03:11:47.560Z,8.70
2019-03-03T03:13:05.667Z,8.70
2019-03-03T03:14:31.947Z,8.70
2019-03-03T03:15:55.196Z,8.70
2019-03-03T03:17:18.406Z,8.70
2019-03-03T03:18:39.377Z,8.70
2019-03-03T03:20:08.916Z,8.70
2019-03-03T03:21:18.448Z,8.70
2019-03-03T03:22:41.651Z,8.70
2019-03-03T03:23:59.821Z,8.80
2019-03-03T03:25:29.340Z,8.80
2019-03-03T03:26:42.862Z,8.80
2019-03-03T03:28:12.356Z,8.70
2019-03-03T03:29:44.677Z,8.80
2019-03-03T03:31:16.997Z,8.80
2019-03-03T03:32:29.182Z,8.80
2019-03-03T03:33:40.469Z,8.80
2019-03-03T03:34:57.439Z,8.80
2019-03-03T03:36:20.070Z,8.80
2019-03-03T03:37:49.398Z,8.80
2019-03-03T03:39:16.028Z,8.80
2019-03-03T03:40:40.905Z,8.80
2019-03-03T03:42:02.370Z,8.80
2019-03-03T03:43:28.314Z,8.80
2019-03-03T03:44:45.992Z,8.80
2019-03-03T03:46:08.400Z,8.80
2019-03-03T03:47:46.782Z,8.80
2019-03-03T03:49:15.959Z,8.80
2019-03-03T03:50:47.310Z,8.90
2019-03-03T03:52:13.550Z,8.80
2019-03-03T03:53:24.519Z,8.80
2019-03-03T03:54:49.526Z,8.80
2019-03-03T03:56:09.158Z,8.80
2019-03-03T03:57:35.405Z,8.80
2019-03-03T03:58:58.014Z,8.80
2019-03-03T04:00:18.407Z,8.80
2019-03-03T04:01:28.746Z,8.70
2019-03-03T04:02:50.847Z,8.80
2019-03-03T04:04:19.961Z,8.70
2019-03-03T04:05:55.152Z,8.70
2019-03-03T04:07:24.263Z,8.80
2019-03-03T04:08:47.469Z,8.80
2019-03-03T04:09:57.192Z,8.80
2019-03-03T04:11:26.686Z,8.80
2019-03-03T04:12:52.741Z,8.70
2019-03-03T04:14:18.012Z,8.70
2019-03-03T04:15:38.589Z,8.70
2019-03-03T04:17:01.801Z,8.70
2019-03-03T04:18:25.064Z,8.70
2019-03-03T04:19:51.084Z,8.80
2019-03-03T04:21:04.580Z,8.80
2019-03-03T04:22:29.722Z,8.80
2019-03-03T04:23:56.169Z,8.80
2019-03-03T04:25:14.279Z,8.80
2019-03-03T04:26:36.175Z,8.80
2019-03-03T04:27:53.845Z,8.80
2019-03-03T04:29:03.429Z,8.80
2019-03-03T04:30:23.100Z,8.80
2019-03-03T04:31:44.856Z,8.70
2019-03-03T04:33:23.430Z,8.70
2019-03-03T04:34:58.775Z,8.70
2019-03-03T04:36:27.849Z,8.80
2019-03-03T04:37:39.335Z,8.70
2019-03-03T04:39:02.571Z,8.70
2019-03-03T04:40:38.367Z,8.80
2019-03-03T04:41:51.857Z,8.80
2019-03-03T04:43:01.495Z,8.70
2019-03-03T04:44:17.377Z,8.70
2019-03-03T04:45:27.952Z,8.70
2019-03-03T04:46:38.069Z,8.70
2019-03-03T04:48:00.161Z,8.70
2019-03-03T04:49:29.417Z,8.70
2019-03-03T04:51:01.935Z,8.70
2019-03-03T04:52:23.959Z,8.70
2019-03-03T04:53:50.025Z,8.70
2019-03-03T04:55:11.975Z,8.70
2019-03-03T04:56:41.503Z,8.70
2019-03-03T04:58:10.560Z,8.70
2019-03-03T04:59:39.825Z,8.70
2019-03-03T05:01:06.089Z,8.70
2019-03-03T05:02:25.217Z,8.70
2019-03-03T05:03:38.183Z,8.70
2019-03-03T05:05:07.463Z,8.70
2019-03-03T05:06:39.668Z,8.70
2019-03-03T05:08:00.941Z,8.70
2019-03-03T05:09:15.053Z,8.70
2019-03-03T05:10:47.393Z,8.80
2019-03-03T05:12:50.583Z,8.80
2019-03-03T05:14:14.271Z,8.80
2019-03-03T05:15:46.463Z,8.80
2019-03-03T05:16:57.409Z,8.80
2019-03-03T05:18:08.188Z,8.80
2019-03-03T05:19:26.139Z,8.80
2019-03-03T05:20:45.506Z,8.80
2019-03-03T05:21:49.683Z,8.80
2019-03-03T05:22:53.941Z,8.80
2019-03-03T05:23:58.449Z,8.80
2019-03-03T05:25:03.109Z,8.80
2019-03-03T05:26:07.340Z,8.80
2019-03-03T05:27:11.676Z,8.80
2019-03-03T05:28:15.917Z,8.80
2019-03-03T05:29:20.132Z,8.70
2019-03-03T05:30:24.335Z,8.70
2019-03-03T05:31:29.399Z,8.80
2019-03-03T05:32:33.771Z,8.70
2019-03-03T05:33:37.907Z,8.70
2019-03-03T05:34:42.203Z,8.70
2019-03-03T05:35:46.468Z,8.70
2019-03-03T05:36:50.667Z,8.70
2019-03-03T05:37:54.897Z,8.70
2019-03-03T05:38:59.209Z,8.70
2019-03-03T05:40:03.563Z,8.70
2019-03-03T05:41:08.015Z,8.70
2019-03-03T05:42:12.326Z,8.70
2019-03-03T05:43:16.421Z,8.70
2019-03-03T05:44:20.685Z,8.70
2019-03-03T05:45:24.798Z,8.70
2019-03-03T05:46:28.979Z,8.70
2019-03-03T05:47:33.268Z,8.70
2019-03-03T05:48:37.454Z,8.70
2019-03-03T05:49:41.769Z,8.70
2019-03-03T05:50:46.050Z,8.80
2019-03-03T05:51:50.323Z,8.70
2019-03-03T05:52:54.594Z,8.60
2019-03-03T05:53:58.899Z,8.70
2019-03-03T05:55:03.109Z,8.70
2019-03-03T05:56:07.281Z,8.70
2019-03-03T05:57:11.555Z,8.70
2019-03-03T05:58:15.765Z,8.60
2019-03-03T05:59:20.038Z,8.70
2019-03-03T06:00:24.166Z,8.70
2019-03-03T06:01:28.519Z,8.70
2019-03-03T06:02:32.825Z,8.70
2019-03-03T06:03:37.055Z,8.70
2019-03-03T06:04:41.235Z,8.70
2019-03-03T06:05:47.427Z,8.70
2019-03-03T06:06:51.951Z,8.70
2019-03-03T06:07:56.107Z,8.70
2019-03-03T06:09:00.397Z,8.70
2019-03-03T06:10:04.904Z,8.70
2019-03-03T06:11:09.183Z,8.70
2019-03-03T06:12:13.370Z,8.70
2019-03-03T06:13:17.522Z,8.70
2019-03-03T06:14:21.716Z,8.70
2019-03-03T06:15:26.349Z,8.70
2019-03-03T06:16:30.523Z,8.70
2019-03-03T06:17:34.773Z,8.70
2019-03-03T06:18:39.052Z,8.70
2019-03-03T06:19:43.329Z,8.70
2019-03-03T06:20:47.797Z,8.70
2019-03-03T06:21:51.945Z,8.70
2019-03-03T06:22:56.207Z,8.70
2019-03-03T06:24:00.331Z,8.70
2019-03-03T06:25:05.123Z,8.70
2019-03-03T06:26:09.471Z,8.70
2019-03-03T06:27:13.684Z,8.70
2019-03-03T06:28:17.851Z,8.80
2019-03-03T06:29:22.003Z,8.80
2019-03-03T06:30:26.278Z,8.80
2019-03-03T06:31:30.445Z,8.80
2019-03-03T06:32:34.694Z,8.80
2019-03-03T06:33:39.019Z,8.80
2019-03-03T06:34:43.717Z,8.80
2019-03-03T06:35:48.012Z,8.80
2019-03-03T06:36:52.283Z,8.80
2019-03-03T06:37:56.620Z,8.80
2019-03-03T06:39:00.972Z,8.80
2019-03-03T06:40:06.166Z,8.80
2019-03-03T06:41:10.297Z,8.80
2019-03-03T06:42:14.630Z,8.80
2019-03-03T06:43:18.906Z,8.80
2019-03-03T06:44:23.037Z,8.90
2019-03-03T06:45:27.232Z,8.80
2019-03-03T06:46:31.425Z,8.90
2019-03-03T06:47:35.641Z,8.90
2019-03-03T06:48:39.815Z,8.90
2019-03-03T06:49:44.091Z,8.90
2019-03-03T06:50:48.280Z,8.90
2019-03-03T06:51:52.605Z,8.90
2019-03-03T06:52:56.967Z,9.00
2019-03-03T06:54:01.173Z,9.00
2019-03-03T06:55:05.512Z,9.00
2019-03-03T06:56:09.673Z,9.00
2019-03-03T06:57:13.799Z,9.00
2019-03-03T06:58:18.054Z,9.00
2019-03-03T06:59:22.227Z,9.00
2019-03-03T07:00:26.401Z,9.10
2019-03-03T07:01:30.675Z,9.00
2019-03-03T07:02:34.827Z,9.00
2019-03-03T07:03:39.089Z,9.00
2019-03-03T07:04:43.464Z,9.00
2019-03-03T07:05:48.017Z,9.00
2019-03-03T07:06:52.307Z,9.00
2019-03-03T07:07:56.563Z,9.00
2019-03-03T07:09:00.727Z,9.00
2019-03-03T07:10:06.401Z,9.00
2019-03-03T07:11:10.845Z,9.00
2019-03-03T07:12:15.023Z,9.00
2019-03-03T07:13:19.299Z,9.00
2019-03-03T07:14:23.488Z,9.00
2019-03-03T07:15:27.941Z,9.00
2019-03-03T07:16:32.090Z,9.00
2019-03-03T07:17:36.766Z,9.00
2019-03-03T07:18:40.999Z,9.00
2019-03-03T07:19:45.278Z,9.00
2019-03-03T07:20:49.444Z,8.90
2019-03-03T07:21:53.647Z,8.90
2019-03-03T07:22:57.831Z,9.00
2019-03-03T07:24:02.010Z,9.00
2019-03-03T07:25:07.595Z,9.00
2019-03-03T07:26:11.873Z,9.00
2019-03-03T07:27:16.168Z,9.00
2019-03-03T07:28:20.385Z,9.00
2019-03-03T07:29:24.695Z,9.00
2019-03-03T07:30:28.868Z,9.10
2019-03-03T07:31:33.082Z,9.00
2019-03-03T07:32:41.849Z,9.10
2019-03-03T07:33:50.533Z,9.10
2019-03-03T07:34:54.834Z,9.10
2019-03-03T07:35:58.977Z,9.10
2019-03-03T07:37:03.273Z,9.10
2019-03-03T07:38:07.504Z,9.20
2019-03-03T07:39:16.908Z,9.20
2019-03-03T07:40:21.095Z,9.10
2019-03-03T07:41:25.404Z,9.10
2019-03-03T07:42:29.697Z,9.10
2019-03-03T07:43:33.874Z,9.20
2019-03-03T07:44:38.169Z,9.20
2019-03-03T07:45:42.476Z,9.20
2019-03-03T07:46:46.749Z,9.20
2019-03-03T07:47:50.876Z,9.20
2019-03-03T07:48:55.129Z,9.20
2019-03-03T07:49:59.325Z,9.20
2019-03-03T07:51:03.503Z,9.20
2019-03-03T07:52:07.746Z,9.20
2019-03-03T07:53:12.057Z,9.20
2019-03-03T07:54:16.289Z,9.20
2019-03-03T07:55:20.756Z,9.20
2019-03-03T07:56:25.065Z,9.20
2019-03-03T07:57:29.237Z,9.20
2019-03-03T07:58:33.540Z,9.20
2019-03-03T07:59:37.675Z,9.20
2019-03-03T08:00:41.945Z,9.30
2019-03-03T08:01:46.128Z,9.30
2019-03-03T08:02:50.399Z,9.30
2019-03-03T08:03:54.700Z,9.30
2019-03-03T08:04:58.887Z,9.30
2019-03-03T08:06:03.396Z,9.30
2019-03-03T08:07:07.637Z,9.20
2019-03-03T08:08:11.947Z,9.30
2019-03-03T08:09:16.242Z,9.30
2019-03-03T08:10:20.511Z,9.30
2019-03-03T08:11:24.695Z,9.30
2019-03-03T08:12:28.904Z,9.30
2019-03-03T08:13:33.163Z,9.30
2019-03-03T08:14:37.325Z,9.30
2019-03-03T08:15:41.484Z,9.30
2019-03-03T08:16:45.759Z,9.30
2019-03-03T08:17:50.021Z,9.30
2019-03-03T08:18:54.157Z,9.30
2019-03-03T08:19:58.432Z,9.30
2019-03-03T08:21:02.731Z,9.30
2019-03-03T08:22:06.964Z,9.30
2019-03-03T08:23:11.223Z,9.30
2019-03-03T08:24:15.744Z,9.20
2019-03-03T08:25:19.911Z,9.30
2019-03-03T08:26:24.115Z,9.20
2019-03-03T08:27:28.309Z,9.30
2019-03-03T08:28:32.659Z,9.30
2019-03-03T08:29:37.265Z,9.30
2019-03-03T08:30:41.620Z,9.30
2019-03-03T08:31:45.847Z,9.30
2019-03-03T08:32:49.997Z,9.40
2019-03-03T08:33:54.361Z,9.30
2019-03-03T08:34:58.919Z,9.40
2019-03-03T08:36:03.145Z,9.40
2019-03-03T08:37:07.335Z,9.50
2019-03-03T08:38:11.675Z,9.50
2019-03-03T08:39:15.982Z,9.50
2019-03-03T08:40:20.308Z,9.60
2019-03-03T08:41:24.489Z,9.60
2019-03-03T08:42:48.932Z,9.60
2019-03-03T08:44:21.501Z,9.60
2019-03-03T08:45:53.753Z,9.60
2019-03-03T08:47:22.692Z,9.70
2019-03-03T08:48:45.941Z,9.70
2019-03-03T08:50:12.917Z,9.70
2019-03-03T08:51:32.148Z,9.70
2019-03-03T08:52:55.369Z,9.80
2019-03-03T08:54:17.313Z,9.80
2019-03-03T08:55:32.452Z,9.90
2019-03-03T08:56:54.652Z,10.00
2019-03-03T08:58:08.985Z,9.90
2019-03-03T08:59:21.546Z,10.00
2019-03-03T09:00:47.795Z,10.00
2019-03-03T09:02:13.807Z,10.10
2019-03-03T09:03:28.368Z,10.10
2019-03-03T09:04:38.996Z,10.10
2019-03-03T09:06:11.315Z,10.10
2019-03-03T09:07:20.550Z,10.20
2019-03-03T09:08:40.871Z,10.20
2019-03-03T09:10:13.466Z,10.20
2019-03-03T09:11:49.043Z,10.20
2019-03-03T09:13:06.577Z,10.20
2019-03-03T09:14:27.692Z,10.20
2019-03-03T09:15:50.949Z,10.20
2019-03-03T09:17:11.924Z,10.20
2019-03-03T09:18:27.995Z,10.20
2019-03-03T09:19:47.874Z,10.20
2019-03-03T09:21:11.037Z,10.20
2019-03-03T09:22:33.195Z,10.30
2019-03-03T09:23:56.395Z,10.40
2019-03-03T09:25:07.967Z,10.40
2019-03-03T09:26:30.323Z,10.40
2019-03-03T09:28:08.657Z,10.40
2019-03-03T09:29:22.664Z,10.40
2019-03-03T09:30:39.755Z,10.40
2019-03-03T09:32:12.091Z,10.40
2019-03-03T09:33:34.182Z,10.50
2019-03-03T09:34:55.776Z,10.50
2019-03-03T09:36:21.796Z,10.50
2019-03-03T09:37:37.212Z,10.50
2019-03-03T09:38:55.465Z,10.50
2019-03-03T09:40:34.103Z,10.50
2019-03-03T09:42:09.407Z,10.60
2019-03-03T09:43:35.530Z,10.70
2019-03-03T09:44:58.385Z,10.80
2019-03-03T09:46:11.819Z,10.80
2019-03-03T09:47:41.351Z,10.80
2019-03-03T09:49:08.697Z,10.80
2019-03-03T09:50:30.617Z,10.70
2019-03-03T09:52:02.765Z,10.70
2019-03-03T09:53:44.155Z,10.70
2019-03-03T09:54:56.701Z,10.60
2019-03-03T09:56:18.829Z,10.60
2019-03-03T09:57:35.768Z,10.60
2019-03-03T09:58:57.728Z,10.60
2019-03-03T10:00:15.363Z,10.60
2019-03-03T10:01:36.280Z,10.60
2019-03-03T10:03:05.625Z,10.60
2019-03-03T10:04:20.837Z,10.60
2019-03-03T10:05:59.351Z,10.60
2019-03-03T10:07:13.629Z,10.60
2019-03-03T10:08:36.726Z,10.60
2019-03-03T10:09:48.719Z,10.60
2019-03-03T10:11:10.632Z,10.60
2019-03-03T10:12:33.802Z,10.60
2019-03-03T10:14:12.349Z,10.60
2019-03-03T10:15:25.757Z,10.60
2019-03-03T10:17:01.094Z,10.60
2019-03-03T10:18:17.760Z,10.60
2019-03-03T10:19:50.160Z,10.60
2019-03-03T10:21:03.378Z,10.60
2019-03-03T10:22:33.002Z,10.60
2019-03-03T10:23:58.357Z,10.60
2019-03-03T10:25:22.225Z,10.70
2019-03-03T10:26:42.399Z,10.70
2019-03-03T10:28:08.082Z,10.70
2019-03-03T10:29:37.500Z,10.70
2019-03-03T10:30:47.968Z,10.70
2019-03-03T10:32:26.911Z,10.80
2019-03-03T10:33:48.780Z,10.80
2019-03-03T10:35:14.667Z,10.90
2019-03-03T10:36:35.971Z,10.80
2019-03-03T10:37:53.428Z,10.80
2019-03-03T10:39:19.655Z,10.80
2019-03-03T10:40:52.116Z,10.80
2019-03-03T10:42:14.336Z,10.80
2019-03-03T10:43:23.132Z,10.80
2019-03-03T10:44:53.361Z,10.80
2019-03-03T10:46:15.552Z,10.80
2019-03-03T10:47:37.436Z,10.80
2019-03-03T10:48:50.286Z,10.90
2019-03-03T10:50:31.643Z,11.00
2019-03-03T10:51:53.639Z,10.90
2019-03-03T10:53:04.961Z,10.90
2019-03-03T10:54:18.420Z,10.90
2019-03-03T10:55:47.408Z,11.00
2019-03-03T10:57:02.176Z,10.90
2019-03-03T10:58:18.129Z,10.90
2019-03-03T10:59:55.064Z,11.00
2019-03-03T11:01:14.738Z,11.00
2019-03-03T11:02:47.060Z,11.00
2019-03-03T11:04:08.981Z,11.00
2019-03-03T11:05:44.499Z,10.90
2019-03-03T11:07:11.109Z,10.90
2019-03-03T11:08:37.413Z,10.90
2019-03-03T11:09:52.217Z,10.90
2019-03-03T11:11:19.154Z,10.90
2019-03-03T11:12:45.175Z,10.90
2019-03-03T11:14:07.247Z,10.90
2019-03-03T11:15:28.807Z,10.90
2019-03-03T11:16:50.677Z,10.90
2019-03-03T11:18:14.466Z,10.90
2019-03-03T11:19:35.701Z,10.90
2019-03-03T11:20:59.035Z,10.90
2019-03-03T11:22:13.060Z,11.00
2019-03-03T11:23:39.083Z,11.00
2019-03-03T11:25:14.976Z,11.00
2019-03-03T11:26:47.307Z,11.00
2019-03-03T11:27:59.525Z,11.00
2019-03-03T11:29:29.101Z,11.00
2019-03-03T11:30:41.997Z,11.10
2019-03-03T11:31:59.522Z,11.00
2019-03-03T11:33:15.940Z,11.10
2019-03-03T11:34:42.011Z,11.00
2019-03-03T11:36:05.684Z,11.10
2019-03-03T11:37:23.065Z,11.10
2019-03-03T11:38:45.288Z,11.10
2019-03-03T11:39:59.208Z,11.10
2019-03-03T11:41:15.624Z,11.20
2019-03-03T11:42:38.846Z,11.20
2019-03-03T11:43:57.245Z,11.20
2019-03-03T11:45:20.507Z,11.20
2019-03-03T11:46:51.518Z,11.20
2019-03-03T11:48:16.729Z,11.20
2019-03-03T11:49:42.731Z,11.20
2019-03-03T11:51:00.733Z,11.20
2019-03-03T11:52:18.494Z,11.20
2019-03-03T11:53:46.255Z,11.20
2019-03-03T11:55:24.815Z,11.20
2019-03-03T11:56:46.833Z,11.20
2019-03-03T11:58:13.009Z,11.20
2019-03-03T11:59:42.259Z,11.20
2019-03-03T12:01:08.531Z,11.20
2019-03-03T12:02:37.530Z,11.20
2019-03-03T12:04:06.775Z,11.20
2019-03-03T12:05:24.807Z,11.20
2019-03-03T12:06:53.889Z,11.20
2019-03-03T12:08:19.917Z,11.10
2019-03-03T12:09:42.053Z,11.10
2019-03-03T12:10:58.464Z,11.10
2019-03-03T12:12:20.784Z,11.10
2019-03-03T12:13:42.786Z,11.00
2019-03-03T12:15:04.754Z,11.00
2019-03-03T12:16:30.835Z,11.00
2019-03-03T12:17:44.604Z,11.00
2019-03-03T12:19:20.093Z,11.00
2019-03-03T12:20:47.183Z,11.00
2019-03-03T12:22:22.522Z,11.00
2019-03-03T12:23:58.229Z,11.00
2019-03-03T12:25:33.761Z,11.00
2019-03-03T12:26:50.866Z,11.00
2019-03-03T12:28:03.065Z,10.90
2019-03-03T12:29:27.177Z,10.90
2019-03-03T12:30:47.935Z,10.90
2019-03-03T12:32:00.410Z,10.90
2019-03-03T12:33:22.443Z,10.90
2019-03-03T12:34:39.198Z,10.90
2019-03-03T12:35:49.248Z,10.90
2019-03-03T12:37:21.274Z,10.90
2019-03-03T12:38:42.891Z,10.90
2019-03-03T12:40:04.323Z,10.90
2019-03-03T12:41:33.794Z,10.90
2019-03-03T12:43:00.506Z,10.90
2019-03-03T12:44:13.405Z,10.90
2019-03-03T12:45:45.837Z,10.90
2019-03-03T12:47:15.562Z,10.90
2019-03-03T12:48:37.686Z,10.90
2019-03-03T12:50:16.303Z,10.90
2019-03-03T12:51:42.377Z,10.90
2019-03-03T12:53:17.944Z,10.90
2019-03-03T12:54:40.074Z,10.90
2019-03-03T12:56:01.006Z,10.90
2019-03-03T12:57:33.597Z,10.90
2019-03-03T12:59:03.053Z,10.90
2019-03-03T13:00:20.372Z,10.90
2019-03-03T13:01:53.277Z,10.90
2019-03-03T13:03:15.352Z,10.90
2019-03-03T13:04:33.535Z,10.90
2019-03-03T13:06:24.041Z,10.90
2019-03-03T13:07:58.483Z,10.90
2019-03-03T13:09:24.616Z,10.90
2019-03-03T13:10:50.859Z,10.90
2019-03-03T13:12:23.101Z,10.90
2019-03-03T13:13:33.819Z,10.90
2019-03-03T13:14:59.791Z,10.90
2019-03-03T13:16:16.912Z,10.90
2019-03-03T13:17:32.797Z,10.90
2019-03-03T13:19:01.751Z,10.90
2019-03-03T13:20:29.120Z,10.90
2019-03-03T13:21:46.861Z,10.90
2019-03-03T13:22:59.862Z,11.00
2019-03-03T13:24:19.843Z,11.00
2019-03-03T13:25:30.824Z,11.10
2019-03-03T13:26:44.840Z,11.10
2019-03-03T13:28:10.793Z,11.10
2019-03-03T13:29:34.091Z,11.00
2019-03-03T13:30:55.210Z,11.00
2019-03-03T13:32:18.444Z,11.10
2019-03-03T13:33:47.536Z,11.10
2019-03-03T13:35:05.954Z,11.20
2019-03-03T13:36:32.192Z,11.20
2019-03-03T13:37:55.466Z,11.30
2019-03-03T13:39:27.818Z,11.30
2019-03-03T13:40:45.926Z,11.30
2019-03-03T13:41:58.766Z,11.30
2019-03-03T13:43:03.003Z,11.40
2019-03-03T13:44:07.224Z,11.40
2019-03-03T13:45:12.574Z,11.50
2019-03-03T13:46:16.947Z,11.50
2019-03-03T13:47:21.265Z,11.40
2019-03-03T13:48:25.596Z,11.30
2019-03-03T13:49:29.966Z,11.30
2019-03-03T13:50:34.368Z,11.30
2019-03-03T13:51:38.683Z,11.30
2019-03-03T13:52:43.203Z,11.40
2019-03-03T13:53:47.511Z,11.40
2019-03-03T13:54:51.795Z,11.40
2019-03-03T13:55:56.347Z,11.40
2019-03-03T13:57:00.922Z,11.30
2019-03-03T13:58:05.384Z,11.30
2019-03-03T13:59:09.664Z,11.30
2019-03-03T14:00:18.276Z,11.30
2019-03-03T14:01:22.521Z,11.30
2019-03-03T14:02:26.883Z,11.30
2019-03-03T14:03:31.125Z,11.20
2019-03-03T14:04:35.303Z,11.20
2019-03-03T14:05:39.941Z,11.20
2019-03-03T14:06:44.393Z,11.20
2019-03-03T14:07:48.911Z,11.20
2019-03-03T14:08:53.209Z,11.30
2019-03-03T14:09:57.389Z,11.30
2019-03-03T14:11:01.595Z,11.40
2019-03-03T14:12:06.180Z,11.40
2019-03-03T14:13:10.437Z,11.50
2019-03-03T14:14:14.931Z,11.50
2019-03-03T14:15:19.869Z,11.50
2019-03-03T14:16:24.072Z,11.50
2019-03-03T14:17:28.356Z,11.50
2019-03-03T14:18:32.676Z,11.50
2019-03-03T14:19:36.838Z,11.50
2019-03-03T14:20:41.172Z,11.60
2019-03-03T14:21:45.475Z,11.50
2019-03-03T14:22:49.829Z,11.50
2019-03-03T14:23:54.221Z,11.50
2019-03-03T14:24:58.539Z,11.50
2019-03-03T14:26:02.861Z,11.50
2019-03-03T14:27:10.600Z,11.50
2019-03-03T14:28:13.045Z,11.50
2019-03-03T14:29:17.264Z,11.40
2019-03-03T14:30:23.062Z,11.30
2019-03-03T14:31:27.315Z,11.40
2019-03-03T14:32:31.532Z,11.40
2019-03-03T14:33:35.811Z,11.40
2019-03-03T14:34:40.147Z,11.50
2019-03-03T14:35:44.515Z,11.50
2019-03-03T14:36:48.702Z,11.40
2019-03-03T14:37:52.966Z,11.50
2019-03-03T14:38:57.256Z,11.50
2019-03-03T14:40:01.471Z,11.50
2019-03-03T14:41:05.761Z,11.50
2019-03-03T14:42:10.095Z,11.50
2019-03-03T14:43:14.623Z,11.50
2019-03-03T14:44:18.919Z,11.50
2019-03-03T14:45:23.407Z,11.50
2019-03-03T14:46:27.593Z,11.50
2019-03-03T14:47:31.778Z,11.50
2019-03-03T14:48:36.065Z,11.40
2019-03-03T14:49:40.258Z,11.40
2019-03-03T14:50:44.434Z,11.50
2019-03-03T14:51:48.762Z,11.50
2019-03-03T14:52:52.923Z,11.50
2019-03-03T14:53:57.165Z,11.50
2019-03-03T14:55:01.556Z,11.50
2019-03-03T14:56:05.861Z,11.50
2019-03-03T14:57:10.066Z,11.50
2019-03-03T14:58:14.343Z,11.50
2019-03-03T14:59:18.563Z,11.50
2019-03-03T15:00:27.123Z,11.50
2019-03-03T15:01:31.301Z,11.50
2019-03-03T15:02:35.444Z,11.40
2019-03-03T15:03:39.682Z,11.40
2019-03-03T15:04:43.909Z,11.50
2019-03-03T15:05:48.167Z,11.40
2019-03-03T15:06:52.361Z,11.50
2019-03-03T15:07:56.697Z,11.50
2019-03-03T15:09:00.966Z,11.40
2019-03-03T15:10:05.722Z,11.30
2019-03-03T15:11:10.001Z,11.30
2019-03-03T15:12:14.340Z,11.30
2019-03-03T15:13:18.731Z,11.40
2019-03-03T15:14:22.951Z,11.30
2019-03-03T15:15:27.789Z,11.30
2019-03-03T15:16:32.381Z,11.30
2019-03-03T15:17:36.630Z,11.30
2019-03-03T15:18:40.769Z,11.30
2019-03-03T15:19:44.968Z,11.30
2019-03-03T15:20:49.187Z,11.20
2019-03-03T15:21:53.495Z,11.30
2019-03-03T15:22:57.805Z,11.20
2019-03-03T15:24:03.623Z,11.30
2019-03-03T15:25:08.368Z,11.40
2019-03-03T15:26:12.670Z,11.40
2019-03-03T15:27:16.963Z,11.40
2019-03-03T15:28:21.293Z,11.40
2019-03-03T15:29:25.510Z,11.40
2019-03-03T15:30:29.939Z,11.30
2019-03-03T15:31:37.725Z,11.40
2019-03-03T15:32:40.196Z,11.40
2019-03-03T15:33:44.394Z,11.40
2019-03-03T15:34:48.614Z,11.40
2019-03-03T15:35:52.849Z,11.30
2019-03-03T15:36:57.049Z,11.30
2019-03-03T15:38:01.284Z,11.30
2019-03-03T15:39:08.199Z,11.30
2019-03-03T15:40:13.396Z,11.30
2019-03-03T15:41:17.582Z,11.30
2019-03-03T15:42:21.891Z,11.20
2019-03-03T15:43:26.159Z,11.20
2019-03-03T15:44:30.505Z,11.10
2019-03-03T15:45:34.704Z,11.10
2019-03-03T15:46:39.042Z,11.20
2019-03-03T15:47:43.165Z,11.20
2019-03-03T15:48:47.423Z,11.20
2019-03-03T15:49:51.703Z,11.20
2019-03-03T15:50:56.226Z,11.20
2019-03-03T15:52:00.488Z,11.30
2019-03-03T15:53:04.814Z,11.30
2019-03-03T15:54:09.054Z,11.30
2019-03-03T15:55:13.796Z,11.20